createdAt,value
2022-10-12T00:00:09.840Z,15.90
2022-10-12T00:02:41.191Z,16.00
2022-10-12T00:05:08.901Z,16.00
2022-10-12T00:07:37.049Z,16.00
2022-10-12T00:10:04.862Z,16.00
2022-10-12T00:12:32.030Z,16.00
2022-10-12T00:14:59.241Z,16.00
2022-10-12T00:17:26.351Z,15.90
2022-10-12T00:19:53.530Z,15.90
2022-10-12T00:22:20.810Z,15.90
2022-10-12T00:24:48.181Z,15.90
2022-10-12T00:27:19.808Z,15.80
2022-10-12T00:29:47.487Z,15.80
2022-10-12T00:32:15.478Z,15.80
2022-10-12T00:34:42.806Z,15.80
2022-10-12T00:37:10.137Z,15.70
2022-10-12T00:39:37.557Z,15.70
2022-10-12T00:42:04.916Z,15.70
2022-10-12T00:44:44.348Z,15.70
2022-10-12T00:47:34.838Z,15.70
2022-10-12T00:50:23.480Z,15.70
2022-10-12T00:53:05.460Z,15.70
2022-10-12T00:55:37.233Z,15.70
2022-10-12T00:58:08.056Z,15.70
2022-10-12T01:00:37.398Z,15.70
2022-10-12T01:03:06.550Z,15.70
2022-10-12T01:05:34.400Z,15.70
2022-10-12T01:08:03.031Z,15.60
2022-10-12T01:10:30.519Z,15.60
2022-10-12T01:12:58.142Z,15.60
2022-10-12T01:15:32.998Z,15.50
2022-10-12T01:18:08.871Z,15.60
2022-10-12T01:21:01.406Z,15.50
2022-10-12T01:24:07.370Z,15.60
2022-10-12T01:26:57.317Z,15.60
2022-10-12T01:29:32.467Z,15.60
2022-10-12T01:32:28.847Z,15.50
2022-10-12T01:34:56.077Z,15.50
2022-10-12T01:37:26.339Z,15.50
2022-10-12T01:39:59.090Z,15.50
2022-10-12T01:42:33.219Z,15.50
2022-10-12T01:45:15.870Z,15.40
2022-10-12T01:47:48.809Z,15.40
2022-10-12T01:50:19.068Z,15.50
2022-10-12T01:52:54.250Z,15.50
2022-10-12T01:56:00.121Z,15.50
2022-10-12T01:58:44.640Z,15.40
2022-10-12T02:01:43.330Z,15.30
2022-10-12T02:04:36.760Z,15.30
2022-10-12T02:07:23.921Z,15.30
2022-10-12T02:09:55.993Z,15.30
2022-10-12T02:12:25.851Z,15.40
2022-10-12T02:15:02.399Z,15.40
2022-10-12T02:17:30.719Z,15.50
2022-10-12T02:19:59.970Z,15.50
2022-10-12T02:22:34.478Z,15.60
2022-10-12T02:25:05.539Z,15.60
2022-10-12T02:27:36.420Z,15.50
2022-10-12T02:30:04.760Z,15.50
2022-10-12T02:32:34.879Z,15.50
2022-10-12T02:35:20.590Z,15.60
2022-10-12T02:38:08.140Z,15.60
2022-10-12T02:40:41.412Z,15.60
2022-10-12T02:43:29.777Z,15.60
2022-10-12T02:46:00.331Z,15.70
2022-10-12T02:48:30.290Z,15.70
2022-10-12T02:50:59.579Z,15.70
2022-10-12T02:53:29.431Z,15.60
2022-10-12T02:56:05.889Z,15.60
2022-10-12T02:58:33.270Z,15.60
2022-10-12T03:01:00.635Z,15.60
2022-10-12T03:03:28.060Z,15.60
2022-10-12T03:05:55.740Z,15.50
2022-10-12T03:08:23.220Z,15.50
2022-10-12T03:10:50.560Z,15.40
2022-10-12T03:13:17.949Z,15.40
2022-10-12T03:15:45.366Z,15.30
2022-10-12T03:18:12.719Z,15.30
2022-10-12T03:20:40.090Z,15.20
2022-10-12T03:23:07.549Z,15.20
2022-10-12T03:25:34.850Z,15.10
2022-10-12T03:28:02.306Z,15.10
2022-10-12T03:30:29.741Z,15.10
2022-10-12T03:32:57.076Z,15.20
2022-10-12T03:35:24.410Z,15.20
2022-10-12T03:37:52.009Z,15.20
2022-10-12T03:40:19.370Z,15.20
2022-10-12T03:42:46.770Z,15.30
2022-10-12T03:45:14.160Z,15.40
2022-10-12T03:47:41.669Z,15.40
2022-10-12T03:50:09.479Z,15.40
2022-10-12T03:52:36.951Z,15.40
2022-10-12T03:55:04.622Z,15.40
2022-10-12T03:57:32.060Z,15.50
2022-10-12T03:59:59.418Z,15.60
2022-10-12T04:02:26.744Z,15.60
2022-10-12T04:04:54.633Z,15.60
2022-10-12T04:07:22.313Z,15.60
2022-10-12T04:09:49.612Z,15.60
2022-10-12T04:12:17.072Z,15.70
2022-10-12T04:14:44.343Z,15.70
2022-10-12T04:17:12.193Z,15.70
2022-10-12T04:19:39.512Z,15.70
2022-10-12T04:22:06.834Z,15.70
2022-10-12T04:24:34.263Z,15.70
2022-10-12T04:27:01.954Z,15.70
2022-10-12T04:29:29.234Z,15.80
2022-10-12T04:31:56.583Z,15.80
2022-10-12T04:34:23.933Z,15.80
2022-10-12T04:36:51.242Z,15.80
2022-10-12T04:39:18.522Z,15.80
2022-10-12T04:41:45.948Z,15.80
2022-10-12T04:44:13.212Z,15.80
2022-10-12T04:46:40.559Z,15.80
2022-10-12T04:49:07.892Z,15.80
2022-10-12T04:51:35.273Z,15.80
2022-10-12T04:54:02.740Z,15.80
2022-10-12T04:56:30.254Z,15.80
2022-10-12T04:58:57.573Z,15.80
2022-10-12T05:01:24.970Z,15.80
2022-10-12T05:03:52.385Z,15.90
2022-10-12T05:06:19.745Z,15.80
2022-10-12T05:08:47.003Z,15.90
2022-10-12T05:11:14.375Z,16.00
2022-10-12T05:13:41.653Z,16.00
2022-10-12T05:16:09.041Z,15.90
2022-10-12T05:18:36.340Z,15.90
2022-10-12T05:21:03.800Z,15.90
2022-10-12T05:23:31.081Z,16.00
2022-10-12T05:25:58.453Z,16.00
2022-10-12T05:28:25.721Z,16.00
2022-10-12T05:30:53.633Z,16.00
2022-10-12T05:33:21.015Z,16.10
2022-10-12T05:35:53.309Z,16.10
2022-10-12T05:38:23.633Z,16.10
2022-10-12T05:40:50.913Z,16.10
2022-10-12T05:43:18.333Z,16.10
2022-10-12T05:45:45.663Z,16.10
2022-10-12T05:48:12.983Z,16.10
2022-10-12T05:50:40.312Z,16.10
2022-10-12T05:53:07.682Z,16.20
2022-10-12T05:55:34.952Z,16.20
2022-10-12T05:58:02.273Z,16.20
2022-10-12T06:00:29.612Z,16.20
2022-10-12T06:02:56.960Z,16.20
2022-10-12T06:05:25.276Z,16.30
2022-10-12T06:07:52.652Z,16.30
2022-10-12T06:10:19.924Z,16.40
2022-10-12T06:12:47.241Z,16.40
2022-10-12T06:15:14.606Z,16.40
2022-10-12T06:17:42.014Z,16.40
2022-10-12T06:20:09.763Z,16.40
2022-10-12T06:22:37.479Z,16.40
2022-10-12T06:25:05.573Z,16.40
2022-10-12T06:27:33.082Z,16.40
2022-10-12T06:30:00.462Z,16.30
2022-10-12T06:32:27.973Z,16.30
2022-10-12T06:34:55.422Z,16.30
2022-10-12T06:37:48.010Z,16.30
2022-10-12T06:40:10.861Z,16.30
2022-10-12T06:42:38.367Z,16.30
2022-10-12T06:45:06.921Z,16.20
2022-10-12T06:47:34.441Z,16.20
2022-10-12T06:50:01.905Z,16.20
2022-10-12T06:52:29.262Z,16.10
2022-10-12T06:54:56.711Z,16.10
2022-10-12T06:57:24.080Z,16.10
2022-10-12T06:59:51.471Z,16.10
2022-10-12T07:02:18.893Z,16.10
2022-10-12T07:04:53.141Z,16.10
2022-10-12T07:07:20.772Z,16.10
2022-10-12T07:09:48.121Z,16.10
2022-10-12T07:12:15.601Z,16.10
2022-10-12T07:14:43.032Z,16.10
2022-10-12T07:17:10.521Z,16.10
2022-10-12T07:19:37.901Z,16.10
2022-10-12T07:22:05.411Z,16.10
2022-10-12T07:24:38.771Z,16.10
2022-10-12T07:27:10.359Z,16.10
2022-10-12T07:29:39.079Z,16.20
2022-10-12T07:32:07.882Z,16.20
2022-10-12T07:34:36.071Z,16.20
2022-10-12T07:37:03.571Z,16.10
2022-10-12T07:39:31.132Z,16.20
2022-10-12T07:41:58.549Z,16.20
2022-10-12T07:44:26.011Z,16.20
2022-10-12T07:46:53.901Z,16.20
2022-10-12T07:49:21.471Z,16.20
2022-10-12T07:51:48.892Z,16.20
2022-10-12T07:54:20.940Z,16.20
2022-10-12T07:56:49.511Z,16.20
2022-10-12T07:59:16.894Z,16.10
2022-10-12T08:01:44.369Z,16.20
2022-10-12T08:04:11.933Z,16.10
2022-10-12T08:06:43.972Z,16.20
2022-10-12T08:09:11.441Z,16.20
2022-10-12T08:11:40.815Z,16.20
2022-10-12T08:14:16.670Z,16.30
2022-10-12T08:16:45.304Z,16.30
2022-10-12T08:19:13.140Z,16.30
2022-10-12T08:21:42.767Z,16.30
2022-10-12T08:24:11.492Z,16.30
2022-10-12T08:26:39.686Z,16.30
2022-10-12T08:29:08.551Z,16.30
2022-10-12T08:31:36.444Z,16.30
2022-10-12T08:34:06.337Z,16.30
2022-10-12T08:36:34.112Z,16.20
2022-10-12T08:39:01.602Z,16.20
2022-10-12T08:41:44.240Z,16.20
2022-10-12T08:44:42.111Z,16.30
2022-10-12T08:47:41.345Z,16.30
2022-10-12T08:50:18.690Z,16.30
2022-10-12T08:53:01.924Z,16.30
2022-10-12T08:55:40.971Z,16.40
2022-10-12T08:58:14.691Z,16.30
2022-10-12T09:00:42.653Z,16.30
2022-10-12T09:03:43.651Z,16.30
2022-10-12T09:06:22.552Z,16.30
2022-10-12T09:09:16.681Z,16.30
2022-10-12T09:11:59.331Z,16.30
2022-10-12T09:14:32.151Z,16.30
2022-10-12T09:17:02.181Z,16.40
2022-10-12T09:19:42.694Z,16.40
2022-10-12T09:22:19.693Z,16.40
2022-10-12T09:24:49.270Z,16.40
2022-10-12T09:27:19.941Z,16.40
2022-10-12T09:30:01.554Z,16.40
2022-10-12T09:32:55.018Z,16.40
2022-10-12T09:35:22.511Z,16.30
2022-10-12T09:37:53.862Z,16.30
2022-10-12T09:40:27.611Z,16.40
2022-10-12T09:42:56.201Z,16.40
2022-10-12T09:45:23.833Z,16.50
2022-10-12T09:48:12.124Z,16.50
2022-10-12T09:50:56.322Z,16.60
2022-10-12T09:53:43.621Z,16.60
2022-10-12T09:56:31.026Z,16.70
2022-10-12T09:59:05.151Z,16.80
2022-10-12T10:01:34.893Z,16.80
2022-10-12T10:04:18.081Z,17.00
2022-10-12T10:06:46.993Z,17.00
2022-10-12T10:09:35.331Z,17.00
2022-10-12T10:12:13.390Z,17.00
2022-10-12T10:14:44.212Z,17.10
2022-10-12T10:17:26.411Z,17.10
2022-10-12T10:19:55.994Z,17.30
2022-10-12T10:22:24.431Z,17.30
2022-10-12T10:24:59.738Z,17.40
2022-10-12T10:27:40.031Z,17.40
2022-10-12T10:30:29.919Z,17.40
2022-10-12T10:33:17.083Z,17.30
2022-10-12T10:36:15.001Z,17.40
2022-10-12T10:39:03.051Z,17.30
2022-10-12T10:41:39.731Z,17.40
2022-10-12T10:44:25.923Z,17.60
2022-10-12T10:46:56.132Z,17.60
2022-10-12T10:49:28.831Z,17.70
2022-10-12T10:51:59.341Z,17.80
2022-10-12T10:54:30.761Z,17.80
2022-10-12T10:57:06.737Z,17.80
2022-10-12T10:59:39.954Z,17.90
2022-10-12T11:02:19.911Z,17.90
2022-10-12T11:04:53.491Z,17.90
2022-10-12T11:07:25.043Z,17.90
2022-10-12T11:09:57.113Z,17.90
2022-10-12T11:12:32.099Z,17.80
2022-10-12T11:15:20.024Z,17.90
2022-10-12T11:17:52.233Z,17.80
2022-10-12T11:20:42.311Z,17.90
2022-10-12T11:23:30.047Z,18.00
2022-10-12T11:26:27.081Z,18.00
2022-10-12T11:28:58.218Z,18.10
2022-10-12T11:31:37.500Z,18.20
2022-10-12T11:34:13.713Z,18.20
2022-10-12T11:36:55.881Z,18.30
2022-10-12T11:39:42.383Z,18.40
2022-10-12T11:42:22.187Z,18.40
2022-10-12T11:44:51.162Z,18.50
2022-10-12T11:47:39.541Z,18.50
2022-10-12T11:50:29.462Z,18.50
2022-10-12T11:52:58.681Z,18.50
2022-10-12T11:55:42.591Z,18.50
2022-10-12T11:58:31.611Z,18.50
2022-10-12T12:01:46.453Z,18.60
2022-10-12T12:04:43.362Z,18.70
2022-10-12T12:07:23.561Z,18.80
2022-10-12T12:09:51.961Z,18.90
2022-10-12T12:12:25.861Z,19.00
2022-10-12T12:14:56.221Z,19.00
2022-10-12T12:17:30.913Z,19.00
2022-10-12T12:20:01.866Z,19.10
2022-10-12T12:22:51.503Z,19.00
2022-10-12T12:28:20.855Z,19.50
2022-10-12T12:30:59.495Z,19.60
2022-10-12T12:33:42.174Z,19.50
2022-10-12T12:36:13.784Z,19.50
2022-10-12T12:38:49.894Z,19.50
2022-10-12T12:41:54.030Z,19.50
2022-10-12T12:44:40.806Z,19.60
2022-10-12T12:50:22.282Z,19.70
2022-10-12T12:52:50.315Z,19.70
2022-10-12T12:58:52.804Z,20.10
2022-10-12T13:01:41.186Z,20.00
2022-10-12T13:04:24.505Z,20.00
2022-10-12T13:07:24.024Z,20.00
2022-10-12T13:10:06.526Z,20.10
2022-10-12T13:16:09.645Z,20.30
2022-10-12T13:18:52.725Z,20.50
2022-10-12T13:24:20.017Z,20.30
2022-10-12T13:26:51.854Z,20.20
2022-10-12T13:29:36.845Z,20.30
2022-10-12T13:32:14.467Z,20.30
2022-10-12T13:34:47.764Z,20.30
2022-10-12T13:39:57.874Z,20.30
2022-10-12T13:42:30.334Z,20.30
2022-10-12T13:44:58.743Z,20.40
2022-10-12T13:47:30.615Z,20.50
2022-10-12T13:52:40.265Z,20.50
2022-10-12T13:55:16.824Z,20.50
2022-10-12T13:57:50.493Z,20.50
2022-10-12T14:00:22.726Z,20.50
2022-10-12T14:05:46.270Z,20.60
2022-10-12T14:08:17.244Z,20.70
2022-10-12T14:10:45.158Z,20.70
2022-10-12T14:13:22.914Z,20.80
2022-10-12T14:15:50.524Z,20.90
2022-10-12T14:18:38.444Z,20.90
2022-10-12T14:21:11.064Z,21.00
2022-10-12T14:23:45.964Z,21.10
2022-10-12T14:26:33.544Z,21.20
2022-10-12T14:29:21.075Z,21.30
2022-10-12T14:31:52.404Z,21.20
2022-10-12T14:34:45.114Z,21.20
2022-10-12T14:37:15.524Z,21.20
2022-10-12T14:39:48.342Z,21.10
2022-10-12T14:42:28.184Z,21.00
2022-10-12T14:44:55.745Z,21.00
2022-10-12T14:47:26.594Z,21.00
2022-10-12T14:49:56.453Z,20.90
2022-10-12T14:52:45.623Z,20.90
2022-10-12T14:55:23.146Z,20.90
2022-10-12T14:57:51.279Z,21.10
2022-10-12T15:00:25.150Z,21.10
2022-10-12T15:02:52.725Z,21.20
2022-10-12T15:05:23.134Z,21.30
2022-10-12T15:07:51.203Z,21.30
2022-10-12T15:10:21.126Z,21.20
2022-10-12T15:15:49.645Z,21.10
2022-10-12T15:18:17.114Z,21.20
2022-10-12T15:23:25.775Z,21.30
2022-10-12T15:25:55.227Z,21.20
2022-10-12T15:28:23.894Z,21.20
2022-10-12T15:31:16.412Z,21.20
2022-10-12T15:39:02.902Z,21.10
2022-10-12T15:41:30.344Z,21.20
2022-10-12T15:43:58.042Z,21.20
2022-10-12T15:46:26.183Z,21.20
2022-10-12T15:51:48.344Z,21.20
2022-10-12T15:54:15.824Z,21.30
2022-10-12T15:56:43.506Z,21.20
2022-10-12T15:59:11.126Z,21.20
2022-10-12T16:01:38.745Z,21.10
2022-10-12T16:04:07.682Z,21.10
2022-10-12T16:06:35.054Z,21.00
2022-10-12T16:09:02.515Z,21.00
2022-10-12T16:11:29.915Z,20.90
2022-10-12T16:13:57.324Z,20.90
2022-10-12T16:16:24.810Z,20.80
2022-10-12T16:18:54.201Z,20.70
2022-10-12T16:21:27.303Z,20.70
2022-10-12T16:24:12.564Z,20.60
2022-10-12T16:26:58.013Z,20.60
2022-10-12T16:29:52.584Z,20.50
2022-10-12T16:36:13.283Z,20.30
2022-10-12T16:38:59.719Z,20.20
2022-10-12T16:41:30.339Z,20.20
2022-10-12T16:44:07.172Z,20.20
2022-10-12T16:46:51.958Z,20.10
2022-10-12T16:49:19.838Z,20.00
2022-10-12T16:51:48.563Z,19.90
2022-10-12T16:54:16.048Z,19.90
2022-10-12T16:56:43.691Z,19.80
2022-10-12T16:59:11.149Z,19.80
2022-10-12T17:01:38.470Z,19.70
2022-10-12T17:04:05.991Z,19.70
2022-10-12T17:06:33.360Z,19.70
2022-10-12T17:09:01.328Z,19.60
2022-10-12T17:11:28.678Z,19.50
2022-10-12T17:13:57.250Z,19.40
2022-10-12T17:16:43.200Z,19.30
2022-10-12T17:19:10.910Z,19.20
2022-10-12T17:21:42.240Z,19.10
2022-10-12T17:24:11.620Z,18.90
2022-10-12T17:26:41.066Z,18.90
2022-10-12T17:29:11.483Z,18.80
2022-10-12T17:31:39.113Z,18.70
2022-10-12T17:34:07.435Z,18.70
2022-10-12T17:36:35.802Z,18.70
2022-10-12T17:39:03.321Z,18.60
2022-10-12T17:41:30.640Z,18.50
2022-10-12T17:43:58.540Z,18.50
2022-10-12T17:49:35.989Z,18.50
2022-10-12T17:52:06.149Z,18.50
2022-10-12T17:57:39.018Z,18.40
2022-10-12T18:00:09.954Z,18.40
2022-10-12T18:02:38.771Z,18.30
2022-10-12T18:05:39.621Z,18.40
2022-10-12T18:08:18.651Z,18.40
2022-10-12T18:11:17.339Z,18.30
2022-10-12T18:14:05.136Z,18.30
2022-10-12T18:17:24.610Z,18.20
2022-10-12T18:20:05.081Z,18.20
2022-10-12T18:22:50.232Z,18.20
2022-10-12T18:25:20.328Z,18.20
2022-10-12T18:28:05.361Z,18.10
2022-10-12T18:30:33.530Z,18.10
2022-10-12T18:33:00.962Z,18.00
2022-10-12T18:35:34.507Z,18.00
2022-10-12T18:38:14.041Z,18.00
2022-10-12T18:40:50.630Z,18.00
2022-10-12T18:43:21.062Z,17.90
2022-10-12T18:45:54.501Z,17.90
2022-10-12T18:48:21.830Z,17.90
2022-10-12T18:53:30.420Z,17.90
2022-10-12T18:55:57.801Z,17.80
2022-10-12T18:58:25.173Z,17.80
2022-10-12T19:00:52.612Z,17.80
2022-10-12T19:06:13.192Z,17.70
2022-10-12T19:08:40.902Z,17.70
2022-10-12T19:11:09.355Z,17.60
2022-10-12T19:13:37.489Z,17.60
2022-10-12T19:16:13.270Z,17.60
2022-10-12T19:18:42.091Z,17.50
2022-10-12T19:21:15.870Z,17.50
2022-10-12T19:23:46.590Z,17.50
2022-10-12T19:26:16.984Z,17.50
2022-10-12T19:28:45.307Z,17.50
2022-10-12T19:31:15.640Z,17.50
2022-10-12T19:33:43.960Z,17.40
2022-10-12T19:36:13.121Z,17.40
2022-10-12T19:38:41.090Z,17.30
2022-10-12T19:41:09.221Z,17.30
2022-10-12T19:43:36.938Z,17.30
2022-10-12T19:46:05.870Z,17.30
2022-10-12T19:48:33.941Z,17.30
2022-10-12T19:51:03.680Z,17.20
2022-10-12T19:53:31.400Z,17.20
2022-10-12T19:56:10.802Z,17.30
2022-10-12T19:58:38.382Z,17.30
2022-10-12T20:01:17.905Z,17.20
2022-10-12T20:03:47.869Z,17.00
2022-10-12T20:06:16.292Z,17.00
2022-10-12T20:08:44.955Z,17.00
2022-10-12T20:11:18.457Z,16.90
2022-10-12T20:13:48.380Z,16.90
2022-10-12T20:18:58.680Z,16.90
2022-10-12T20:21:26.292Z,16.90
2022-10-12T20:23:53.890Z,16.90
2022-10-12T20:26:24.160Z,16.90
2022-10-12T20:28:53.181Z,16.90
2022-10-12T20:31:23.631Z,16.80
2022-10-12T20:33:54.786Z,16.80
2022-10-12T20:36:28.632Z,16.70
2022-10-12T20:41:40.761Z,16.70
2022-10-12T20:44:10.159Z,16.70
2022-10-12T20:46:37.590Z,16.60
2022-10-12T20:49:05.471Z,16.50
2022-10-12T20:54:19.060Z,16.40
2022-10-12T20:56:49.639Z,16.40
2022-10-12T20:59:17.059Z,16.30
2022-10-12T21:01:44.630Z,16.30
2022-10-12T21:04:12.080Z,16.30
2022-10-12T21:06:39.588Z,16.30
2022-10-12T21:09:06.971Z,16.20
2022-10-12T21:11:35.008Z,16.20
2022-10-12T21:14:02.370Z,16.20
2022-10-12T21:16:29.921Z,16.20
2022-10-12T21:18:57.410Z,16.20
2022-10-12T21:21:24.871Z,16.30
2022-10-12T21:23:54.971Z,16.20
2022-10-12T21:26:23.971Z,16.20
2022-10-12T21:28:51.858Z,16.20
2022-10-12T21:31:20.122Z,16.10
2022-10-12T21:33:48.012Z,15.90
2022-10-12T21:36:17.045Z,15.80
2022-10-12T21:38:44.502Z,15.70
2022-10-12T21:41:13.211Z,15.60
2022-10-12T21:43:42.222Z,15.50
2022-10-12T21:48:55.900Z,15.60
2022-10-12T21:51:24.880Z,15.70
2022-10-12T21:53:52.920Z,15.70
2022-10-12T21:56:21.650Z,15.70
2022-10-12T21:58:49.980Z,15.60
2022-10-12T22:01:20.549Z,15.60
2022-10-12T22:03:50.460Z,15.40
2022-10-12T22:06:19.830Z,15.30
2022-10-12T22:09:09.566Z,15.40
2022-10-12T22:11:37.988Z,15.50
2022-10-12T22:14:11.766Z,15.50
2022-10-12T22:16:39.187Z,15.70
2022-10-12T22:19:07.986Z,15.70
2022-10-12T22:21:36.555Z,15.80
2022-10-12T22:24:04.006Z,15.80
2022-10-12T22:26:31.646Z,15.90
2022-10-12T22:29:01.217Z,15.90
2022-10-12T22:31:29.265Z,15.90
2022-10-12T22:33:56.764Z,15.90
2022-10-12T22:36:24.205Z,15.90
2022-10-12T22:38:51.494Z,15.80
2022-10-12T22:41:23.165Z,15.60
2022-10-12T22:43:53.077Z,15.50
2022-10-12T22:46:21.587Z,15.30
2022-10-12T22:48:49.645Z,15.20
2022-10-12T22:51:21.854Z,15.10
2022-10-12T22:53:49.595Z,15.10
2022-10-12T22:56:18.786Z,15.10
2022-10-12T22:58:49.137Z,15.10
2022-10-12T23:01:17.838Z,15.10
2022-10-12T23:03:46.131Z,15.10
2022-10-12T23:06:16.295Z,15.10
2022-10-12T23:08:43.884Z,15.00
2022-10-12T23:11:14.297Z,15.10
2022-10-12T23:13:42.835Z,15.10
2022-10-12T23:16:19.115Z,15.20
2022-10-12T23:18:46.665Z,15.30
2022-10-12T23:21:17.079Z,15.40
2022-10-12T23:23:45.989Z,15.40
2022-10-12T23:26:16.394Z,15.30
2022-10-12T23:28:44.795Z,15.40
2022-10-12T23:31:19.034Z,15.40
2022-10-12T23:33:46.776Z,15.50
2022-10-12T23:36:17.192Z,15.60
2022-10-12T23:38:45.636Z,15.60
2022-10-12T23:41:13.504Z,15.70
2022-10-12T23:43:41.138Z,15.70
2022-10-12T23:46:08.675Z,15.70
2022-10-12T23:48:36.056Z,15.70
2022-10-12T23:51:05.696Z,15.70
2022-10-12T23:53:33.134Z,15.80
2022-10-12T23:56:00.355Z,15.80
2022-10-12T23:58:27.675Z,15.80
